Stations météo

réclame
Mon MeteoGroup
Navacerrada, Espagne (8215): Température de l'air & dewpoint: 13.03.2019 03:00:00 - 19.03.2019 03:00:00 (CET)Navacerrada, Espagne (8215): Vitesse du vent: 13.03.2019 03:00:00 - 19.03.2019 03:00:00 (CET)Navacerrada, Espagne (8215): Direction du vent: 13.03.2019 03:00:00 - 19.03.2019 03:00:00 (CET)Navacerrada, Espagne (8215): visibility: 13.03.2019 03:00:00 - 19.03.2019 03:00:00 (CET)Navacerrada, Espagne (8215): Quantités de précipitations: 13.03.2019 03:00:00 - 19.03.2019 03:00:00 (CET)
Date & Time tt [°C] td [°C] ff [km/h] ff [knt] dd vv [km] rr [mm]
19.03.2019 03:00:00 -2,5 -4,5 18 10 N 20 0,0
19.03.2019 02:00:00 -2,1 -5,8 21 11 N 20 0,0
19.03.2019 01:00:00 -1,7 -5,6 18 10 N 20 -
19.03.2019 00:00:00 -1,4 -5,8 15 8 NNE 20 0,0
18.03.2019 23:00:00 -0,8 -6,0 15 8 NNE 20 0,0
18.03.2019 22:00:00 -1,2 -5,6 13 7 NNE 20 -
18.03.2019 21:00:00 -1,7 -5,6 11 6 NNW 20 0,0
18.03.2019 20:00:00 -0,9 -5,0 9 5 NW 20 0,0
18.03.2019 19:00:00 1,5 -5,0 9 5 NNW 25 -
18.03.2019 18:00:00 3,6 -5,4 13 7 NNW 20 0,0
18.03.2019 17:00:00 4,5 -6,1 15 8 NW 20 0,0
18.03.2019 16:00:00 5,6 -4,3 9 5 NNW 40 -
18.03.2019 15:00:00 4,8 -4,0 11 6 NNW 20 0,0
18.03.2019 14:00:00 4,9 -4,1 8 4 NW 20 0,0
18.03.2019 13:00:00 3,2 -5,0 8 4 NNW 50 -
18.03.2019 12:00:00 1,4 -5,3 8 4 NW 20 0,0
18.03.2019 11:00:00 0,5 -5,7 4 2 NW 20 0,0
18.03.2019 10:00:00 -1,6 -7,7 8 4 N 40 -
18.03.2019 09:00:00 -2,6 -5,3 9 5 N 20 0,0
18.03.2019 08:00:00 -4,4 -5,1 9 5 NNW 7 0,0
18.03.2019 07:00:00 -3,2 -6,8 15 8 N 12 -
18.03.2019 06:00:00 -1,7 -16,6 21 11 N 20 0,0
18.03.2019 05:00:00 -2,7 -7,4 21 11 N 20 0,0
18.03.2019 04:00:00 -2,3 -3,3 18 10 N 17 -
18.03.2019 03:00:00 -1,0 -2,6 18 10 N 20 0,0
18.03.2019 02:00:00 -0,4 -1,1 9 5 N 6 0,0
18.03.2019 01:00:00 0,4 -0,9 16 9 N 18 -
18.03.2019 00:00:00 1,2 -1,0 9 5 NNE 20 0,0
17.03.2019 23:00:00 1,3 -1,1 18 10 N 20 0,0
17.03.2019 22:00:00 1,7 -2,3 22 12 N 20 -
17.03.2019 21:00:00 1,4 -1,0 16 9 N 20 0,0
17.03.2019 20:00:00 1,9 0,0 15 8 NNE 20 0,0
17.03.2019 19:00:00 2,7 0,4 16 9 N 20 -
17.03.2019 18:00:00 4,3 1,2 16 9 N 19 0,0
17.03.2019 17:00:00 5,3 1,2 18 10 N 19 0,0
17.03.2019 16:00:00 5,7 0,6 18 10 NNW 20 -
17.03.2019 15:00:00 7,3 0,7 15 8 N 20 0,0
17.03.2019 14:00:00 7,9 1,3 11 6 N 19 0,0
17.03.2019 13:00:00 7,3 -0,7 13 7 NNE 20 -
17.03.2019 12:00:00 4,2 -2,2 15 8 NNW 16 0,0
17.03.2019 11:00:00 4,7 -3,8 16 9 NNW 13 0,0
17.03.2019 10:00:00 4,6 -5,5 18 10 N 20 -
17.03.2019 09:00:00 4,1 -6,5 21 11 N 10 0,0
17.03.2019 08:00:00 2,0 -9,0 18 10 N 10 0,0
17.03.2019 07:00:00 2,2 -7,7 18 10 N 20 -
17.03.2019 06:00:00 2,7 -3,0 13 7 NNW 19 0,0
17.03.2019 05:00:00 3,3 -2,2 13 7 NW 20 0,0
17.03.2019 04:00:00 3,0 -2,1 11 6 NNE 19 -
17.03.2019 03:00:00 3,1 -2,0 11 6 ENE 20 0,0
17.03.2019 02:00:00 4,9 -1,8 13 7 NNW 20 0,0
17.03.2019 01:00:00 6,3 -5,7 13 7 NW 20 -
17.03.2019 00:00:00 6,9 -5,8 13 7 NW 20 0,0
16.03.2019 23:00:00 6,8 -4,0 4 2 NE 20 0,0
16.03.2019 22:00:00 7,5 -3,4 9 5 W 20 -
16.03.2019 21:00:00 7,9 -6,6 8 4 WNW 20 0,0
16.03.2019 20:00:00 8,3 -6,3 16 9 SSW 20 0,0
16.03.2019 19:00:00 11,3 -3,6 21 11 SSW 25 -
16.03.2019 18:00:00 12,6 -4,5 22 12 SW 20 0,0
16.03.2019 17:00:00 13,1 -4,6 26 14 SW 20 0,0
16.03.2019 16:00:00 13,6 -4,5 22 12 SW 50 -
16.03.2019 15:00:00 13,7 -4,5 24 13 SSW 20 0,0
16.03.2019 14:00:00 13,7 -3,6 29 16 S 20 0,0
16.03.2019 13:00:00 13,2 -4,4 29 16 SSW 40 -
16.03.2019 12:00:00 12,6 -3,7 21 11 SSW 20 0,0
16.03.2019 11:00:00 11,9 -4,3 22 12 SSW 20 0,0
16.03.2019 10:00:00 9,9 -4,8 21 11 SSW 35 -
16.03.2019 09:00:00 8,7 -4,5 22 12 SSW 20 0,0
16.03.2019 08:00:00 7,1 -5,6 22 12 SSW 20 0,0
16.03.2019 07:00:00 7,2 -6,1 21 11 SSW 15 -
16.03.2019 06:00:00 7,0 -7,1 24 13 SSW 20 0,0
16.03.2019 05:00:00 7,1 -5,9 21 11 S 20 0,0
16.03.2019 04:00:00 8,6 -8,9 21 11 SSE 20 -
16.03.2019 03:00:00 8,4 -6,2 22 12 SSE 20 0,0
16.03.2019 02:00:00 8,2 -6,4 22 12 SSE 20 0,0
16.03.2019 01:00:00 7,8 -3,7 21 11 SSE 20 -
16.03.2019 00:00:00 8,4 -2,9 18 10 SSE 20 0,0
15.03.2019 23:00:00 8,4 -3,5 13 7 SSE 20 0,0
15.03.2019 22:00:00 8,6 -4,3 13 7 SSE 20 -
15.03.2019 21:00:00 8,6 -4,9 11 6 NE 20 0,0
15.03.2019 20:00:00 9,4 -6,1 2 1 W 20 0,0
15.03.2019 19:00:00 12,0 -4,2 5 3 W 30 -
15.03.2019 18:00:00 13,8 -3,5 8 4 WNW 20 0,0
15.03.2019 17:00:00 14,4 -3,4 4 2 WNW 20 0,0
15.03.2019 16:00:00 15,3 -3,6 5 3 W 20 -
15.03.2019 15:00:00 14,8 -2,2 5 3 NW 20 0,0
15.03.2019 14:00:00 13,5 -3,8 4 2 NW 20 0,0
15.03.2019 13:00:00 13,9 -3,4 5 3 NW 30 -
15.03.2019 12:00:00 13,6 -4,6 4 2 NNW 20 0,0
15.03.2019 11:00:00 13,4 -5,3 2 1 ESE 20 0,0
15.03.2019 10:00:00 11,3 -6,6 2 1 SSW 20 -
15.03.2019 09:00:00 7,5 -9,4 4 2 NNW 20 0,0
15.03.2019 08:00:00 5,3 -11,3 8 4 W 20 0,0
15.03.2019 07:00:00 4,9 -10,8 5 3 NW 20 -
15.03.2019 06:00:00 4,6 -10,7 8 4 WSW 20 0,0
15.03.2019 05:00:00 3,9 -10,6 9 5 WNW 20 0,0
15.03.2019 04:00:00 4,0 -11,2 9 5 WNW 20 -
15.03.2019 03:00:00 4,3 -10,2 15 8 NNW 20 0,0
15.03.2019 02:00:00 3,8 -11,8 9 5 NNW 20 0,0
15.03.2019 01:00:00 4,6 -10,7 18 10 N 20 -
15.03.2019 00:00:00 3,9 -11,7 16 9 NE 20 0,0
14.03.2019 23:00:00 3,3 -12,7 15 8 NNE 20 0,0
14.03.2019 22:00:00 2,9 -7,9 13 7 NNW 20 -
14.03.2019 21:00:00 3,2 -13,6 15 8 N 20 0,0
14.03.2019 20:00:00 2,2 -5,9 13 7 N 20 0,0
14.03.2019 19:00:00 4,2 -6,7 13 7 N 30 -
14.03.2019 18:00:00 6,7 -8,1 8 4 NW 20 0,0
14.03.2019 17:00:00 7,1 -9,8 16 9 N 20 0,0
14.03.2019 16:00:00 7,7 -2,9 11 6 N 30 -
14.03.2019 15:00:00 8,5 -2,5 11 6 NW 20 0,0
14.03.2019 14:00:00 7,4 -3,8 15 8 NNW 20 0,0
14.03.2019 13:00:00 7,2 -5,5 9 5 NNW 30 -
14.03.2019 12:00:00 5,7 -10,6 9 5 NNW 20 0,0
14.03.2019 11:00:00 5,9 -12,7 8 4 NNE 20 0,0
14.03.2019 10:00:00 4,0 -15,9 13 7 NNW 30 -
14.03.2019 09:00:00 2,3 -13,5 18 10 N 20 0,0
14.03.2019 08:00:00 -0,2 -11,3 21 11 N 20 0,0
14.03.2019 07:00:00 -0,7 -11,8 21 11 NNE 20 -
14.03.2019 06:00:00 -1,5 -9,6 15 8 NNE 20 0,0
14.03.2019 05:00:00 -2,4 -7,9 24 13 N 20 0,0
14.03.2019 04:00:00 -2,4 -6,9 18 10 N 20 -
14.03.2019 03:00:00 -2,2 -4,9 18 10 NNE 20 0,0
14.03.2019 02:00:00 -2,0 -4,8 18 10 NNE 20 0,0
14.03.2019 01:00:00 -2,2 -4,5 18 10 NNE 20 -
14.03.2019 00:00:00 -2,2 -4,1 22 12 N 20 0,0
13.03.2019 23:00:00 -2,0 -3,7 21 11 N 20 0,0
13.03.2019 22:00:00 -2,0 -3,6 22 12 N 20 -
13.03.2019 21:00:00 -1,9 -3,6 24 13 NNW 20 0,0
13.03.2019 20:00:00 -1,9 -3,3 21 11 N 20 0,0
13.03.2019 19:00:00 -1,0 -3,2 18 10 NNE 20 -
13.03.2019 18:00:00 -0,5 -2,6 15 8 NNE 20 0,0
13.03.2019 17:00:00 -0,4 -2,0 15 8 N 20 0,0
13.03.2019 16:00:00 - - - - - - -
13.03.2019 15:00:00 -0,3 -0,3 16 9 N 19 0,0
13.03.2019 14:00:00 -0,9 -0,9 21 11 N 19 0,0
13.03.2019 13:00:00 -1,0 -1,0 16 9 N 3,0 -
13.03.2019 12:00:00 -1,8 -1,8 18 10 N 10 0,0
13.03.2019 11:00:00 -2,4 -2,4 16 9 N 11 0,0
13.03.2019 10:00:00 -3,1 -3,1 18 10 N 0,4 -
13.03.2019 09:00:00 -2,6 -2,6 24 13 N 0,1 0,0
13.03.2019 08:00:00 -1,9 -1,9 28 15 N 0,1 0,0
13.03.2019 07:00:00 -0,7 -0,7 22 12 N - -
13.03.2019 06:00:00 -0,2 -0,2 22 12 N - 0,0
13.03.2019 05:00:00 0,3 0,3 22 12 NNW - 1,0
13.03.2019 04:00:00 0,8 0,8 26 14 NNW - -
13.03.2019 03:00:00 1,1 1,1 15 8 NNW - 0,0

tt = Température de l'air
td = dewpoint
ff = Vitesse du vent
dd = Direction du vent
vv = visibility
rr = Quantités de précipitations

stations d'obs. à proximité